createdAt,value
2019-06-04T00:01:26.208Z,994.58
2019-06-04T00:11:20.781Z,994.42
2019-06-04T00:21:20.865Z,994.48
2019-06-04T00:31:34.372Z,994.43
2019-06-04T00:41:20.821Z,994.37
2019-06-04T00:51:20.881Z,994.38
2019-06-04T01:01:20.945Z,994.21
2019-06-04T01:11:20.804Z,994.18
2019-06-04T01:21:20.791Z,994.16
2019-06-04T01:31:20.871Z,994.03
2019-06-04T01:41:20.964Z,994.04
2019-06-04T01:51:20.917Z,994.01
2019-06-04T02:01:20.888Z,993.97
2019-06-04T02:11:20.789Z,993.79
2019-06-04T02:21:20.862Z,993.62
2019-06-04T02:31:20.856Z,993.57
2019-06-04T02:41:20.826Z,993.66
2019-06-04T02:51:20.959Z,993.54
2019-06-04T03:01:20.881Z,993.49
2019-06-04T03:11:20.837Z,993.60
2019-06-04T03:21:20.997Z,993.39
2019-06-04T03:31:23.614Z,993.42
2019-06-04T03:41:21.554Z,993.38
2019-06-04T03:51:20.961Z,993.44
2019-06-04T04:01:20.881Z,993.51
2019-06-04T04:11:20.853Z,993.52
2019-06-04T04:21:21.055Z,993.47
2019-06-04T04:31:21.818Z,993.47
2019-06-04T04:41:21.920Z,993.51
2019-06-04T04:51:21.509Z,993.41
2019-06-04T05:01:21.829Z,993.37
2019-06-04T05:11:22.059Z,993.31
2019-06-04T05:21:21.378Z,993.15
2019-06-04T05:31:21.560Z,993.10
2019-06-04T05:41:22.109Z,993.12
2019-06-04T05:51:20.839Z,992.97
2019-06-04T06:01:20.915Z,992.91
2019-06-04T06:11:20.905Z,992.89
2019-06-04T06:21:20.930Z,992.59
2019-06-04T06:31:21.746Z,992.57
2019-06-04T06:41:20.994Z,992.45
2019-06-04T06:51:21.043Z,992.47
2019-06-04T07:01:22.798Z,992.42
2019-06-04T07:11:20.789Z,992.13
2019-06-04T07:21:21.026Z,992.06
2019-06-04T07:31:21.955Z,991.87
2019-06-04T07:41:20.977Z,991.83
2019-06-04T07:51:21.919Z,991.99
2019-06-04T08:01:24.223Z,991.87
2019-06-04T08:11:21.044Z,991.84
2019-06-04T08:21:20.999Z,991.88
2019-06-04T08:31:21.081Z,991.76
2019-06-04T08:41:21.777Z,991.66
2019-06-04T08:51:21.061Z,991.45
2019-06-04T09:01:20.988Z,991.40
2019-06-04T09:11:21.049Z,991.24
2019-06-04T09:21:20.994Z,991.15
2019-06-04T09:31:27.373Z,991.26
2019-06-04T09:41:21.865Z,990.94
2019-06-04T09:51:21.854Z,990.82
2019-06-04T10:01:21.921Z,990.58
2019-06-04T10:11:21.176Z,990.50
2019-06-04T10:21:21.055Z,990.26
2019-06-04T10:31:21.921Z,990.05
2019-06-04T18:06:02.160Z,982.48
2019-06-04T18:16:02.253Z,982.50
2019-06-04T18:26:02.228Z,982.56
2019-06-04T18:36:03.126Z,982.56
2019-06-04T18:46:02.279Z,982.48
2019-06-04T18:56:02.242Z,982.32
2019-06-04T19:06:02.218Z,982.37
2019-06-04T19:16:02.284Z,982.34
2019-06-04T19:26:02.353Z,982.48
2019-06-04T19:36:02.206Z,982.79
2019-06-04T19:46:02.262Z,982.97
2019-06-04T19:56:02.256Z,983.01
2019-06-04T20:06:02.311Z,984.17
2019-06-04T20:16:02.294Z,984.91
2019-06-04T20:26:02.247Z,984.97
2019-06-04T20:36:02.327Z,985.16
2019-06-04T20:46:03.631Z,985.33
2019-06-04T20:56:02.369Z,984.31
2019-06-04T21:06:02.340Z,985.31
2019-06-04T21:16:02.296Z,985.49
2019-06-04T21:26:02.331Z,985.51
2019-06-04T21:36:02.313Z,985.46
2019-06-04T21:46:02.364Z,985.48
2019-06-04T21:56:02.347Z,985.62
2019-06-04T22:06:02.311Z,985.72
2019-06-04T22:16:10.578Z,985.77
2019-06-04T22:26:02.335Z,985.91
2019-06-04T22:36:02.299Z,985.99
2019-06-04T22:46:18.538Z,986.12
2019-06-04T22:56:02.337Z,986.40
2019-06-04T23:06:02.786Z,986.48
2019-06-04T23:16:03.173Z,986.60
2019-06-04T23:26:02.331Z,986.74
2019-06-04T23:36:03.201Z,986.60
2019-06-04T23:46:02.420Z,986.80
2019-06-04T23:56:02.391Z,986.94
